createdAt,value
2022-12-04T00:01:29.473Z,0.50
2022-12-04T00:06:27.088Z,0.63
2022-12-04T00:08:55.614Z,1.10
2022-12-04T00:11:28.397Z,1.10
2022-12-04T00:14:01.416Z,0.95
2022-12-04T00:16:33.309Z,0.80
2022-12-04T00:19:01.393Z,1.30
2022-12-04T00:21:29.445Z,1.27
2022-12-04T00:23:57.558Z,1.25
2022-12-04T00:26:29.205Z,1.35
2022-12-04T00:28:57.601Z,1.00
2022-12-04T00:31:27.151Z,1.02
2022-12-04T00:33:55.885Z,1.55
2022-12-04T00:36:26.492Z,1.23
2022-12-04T00:38:55.133Z,1.05
2022-12-04T00:41:24.927Z,1.00
2022-12-04T00:43:54.500Z,0.85
2022-12-04T00:46:23.629Z,0.70
2022-12-04T00:48:52.676Z,1.60
2022-12-04T00:51:22.490Z,0.90
2022-12-04T00:53:50.833Z,0.80
2022-12-04T00:56:22.225Z,0.65
2022-12-04T00:58:54.613Z,0.82
2022-12-04T01:01:23.919Z,0.73
2022-12-04T01:03:52.042Z,1.25
2022-12-04T01:06:22.596Z,0.73
2022-12-04T01:08:51.137Z,0.70
2022-12-04T01:11:20.612Z,1.05
2022-12-04T01:13:48.807Z,0.90
2022-12-04T01:16:20.194Z,0.73
2022-12-04T01:18:48.641Z,0.80
2022-12-04T01:21:17.171Z,0.95
2022-12-04T01:23:45.563Z,1.05
2022-12-04T01:26:14.289Z,1.23
2022-12-04T01:28:43.112Z,1.50
2022-12-04T01:31:13.961Z,0.98
2022-12-04T01:33:44.669Z,0.98
2022-12-04T01:36:15.806Z,1.23
2022-12-04T01:38:44.662Z,0.93
2022-12-04T01:41:15.136Z,0.85
2022-12-04T01:43:44.063Z,1.35
2022-12-04T01:46:13.116Z,0.98
2022-12-04T01:48:48.053Z,1.35
2022-12-04T01:51:20.781Z,1.42
2022-12-04T01:53:52.970Z,1.10
2022-12-04T01:56:22.991Z,0.82
2022-12-04T01:58:56.260Z,1.38
2022-12-04T02:01:24.667Z,1.13
2022-12-04T02:04:06.037Z,1.73
2022-12-04T02:06:34.105Z,1.20
2022-12-04T02:09:02.519Z,1.40
2022-12-04T02:11:39.875Z,1.55
2022-12-04T02:14:22.146Z,1.75
2022-12-04T02:16:56.525Z,1.10
2022-12-04T02:20:00.002Z,1.10
2022-12-04T02:22:44.087Z,1.10
2022-12-04T02:25:25.096Z,1.00
2022-12-04T02:28:14.217Z,1.40
2022-12-04T02:30:46.145Z,1.35
2022-12-04T02:33:22.245Z,0.98
2022-12-04T02:35:54.663Z,0.60
2022-12-04T02:38:28.055Z,0.70
2022-12-04T02:41:01.834Z,0.60
2022-12-04T02:43:39.284Z,1.17
2022-12-04T02:46:13.616Z,1.30
2022-12-04T02:48:45.846Z,1.20
2022-12-04T02:51:17.541Z,1.25
2022-12-04T02:53:51.705Z,1.20
2022-12-04T02:56:25.956Z,1.40
2022-12-04T02:58:58.697Z,1.25
2022-12-04T03:01:34.001Z,0.88
2022-12-04T03:04:06.754Z,0.88
2022-12-04T03:06:38.202Z,0.93
2022-12-04T03:09:11.321Z,0.80
2022-12-04T03:11:42.138Z,1.10
2022-12-04T03:14:16.725Z,1.15
2022-12-04T03:16:46.729Z,1.35
2022-12-04T03:19:24.087Z,0.90
2022-12-04T03:21:56.353Z,0.90
2022-12-04T03:24:28.419Z,0.60
2022-12-04T03:27:02.330Z,0.88
2022-12-04T03:29:37.031Z,1.10
2022-12-04T03:32:12.610Z,1.90
2022-12-04T03:34:51.222Z,1.42
2022-12-04T03:37:27.457Z,0.90
2022-12-04T03:40:00.136Z,1.25
2022-12-04T03:42:36.979Z,1.73
2022-12-04T03:45:11.885Z,1.45
2022-12-04T03:47:45.544Z,0.77
2022-12-04T03:50:19.549Z,0.65
2022-12-04T03:52:54.185Z,0.70
2022-12-04T03:55:27.461Z,0.93
2022-12-04T03:58:00.138Z,1.05
2022-12-04T04:00:32.347Z,1.02
2022-12-04T04:03:05.683Z,1.38
2022-12-04T04:05:37.363Z,1.02
2022-12-04T04:08:23.005Z,1.67
2022-12-04T04:10:53.768Z,1.27
2022-12-04T04:13:43.737Z,0.98
2022-12-04T04:16:35.471Z,0.65
2022-12-04T04:19:21.932Z,0.90
2022-12-04T04:22:11.089Z,0.85
2022-12-04T04:24:44.375Z,1.00
2022-12-04T04:27:12.728Z,1.40
2022-12-04T04:29:41.068Z,1.23
2022-12-04T04:32:15.748Z,1.10
2022-12-04T04:34:52.241Z,0.95
2022-12-04T04:37:30.496Z,1.20
2022-12-04T04:40:05.205Z,0.98
2022-12-04T04:42:40.684Z,1.40
2022-12-04T04:45:17.818Z,1.23
2022-12-04T04:47:53.883Z,2.28
2022-12-04T04:50:23.129Z,1.25
2022-12-04T04:52:54.827Z,1.07
2022-12-04T04:55:23.575Z,2.50
2022-12-04T04:57:51.659Z,1.80
2022-12-04T05:00:22.342Z,2.55
2022-12-04T05:02:51.850Z,2.00
2022-12-04T05:05:19.911Z,2.33
2022-12-04T05:07:47.967Z,1.98
2022-12-04T05:10:15.975Z,1.65
2022-12-04T05:12:43.941Z,1.48
2022-12-04T05:15:12.489Z,1.15
2022-12-04T05:17:40.485Z,1.38
2022-12-04T05:20:11.945Z,1.63
2022-12-04T05:22:39.936Z,1.08
2022-12-04T05:25:08.618Z,1.63
2022-12-04T05:27:36.867Z,1.60
2022-12-04T05:30:06.385Z,0.95
2022-12-04T05:32:34.574Z,1.33
2022-12-04T05:35:07.726Z,0.80
2022-12-04T05:37:43.634Z,0.77
2022-12-04T05:40:12.349Z,0.80
2022-12-04T05:42:41.576Z,1.42
2022-12-04T05:45:10.197Z,0.70
2022-12-04T05:47:40.412Z,0.32
2022-12-04T05:52:37.649Z,0.75
2022-12-04T05:55:07.511Z,0.90
2022-12-04T05:57:35.534Z,0.70
2022-12-04T06:00:03.547Z,1.05
2022-12-04T06:02:31.932Z,0.80
2022-12-04T06:04:59.961Z,0.60
2022-12-04T06:07:28.016Z,0.85
2022-12-04T06:09:57.510Z,1.27
2022-12-04T06:12:27.269Z,1.02
2022-12-04T06:14:55.451Z,0.70
2022-12-04T06:17:23.525Z,0.77
2022-12-04T06:19:53.514Z,0.90
2022-12-04T06:22:22.042Z,0.70
2022-12-04T06:24:50.142Z,0.70
2022-12-04T06:27:33.511Z,0.50
2022-12-04T06:30:03.105Z,0.50
2022-12-04T06:32:31.111Z,0.30
2022-12-04T06:34:59.125Z,0.70
2022-12-04T06:37:27.291Z,0.90
2022-12-04T06:39:55.819Z,0.57
2022-12-04T06:42:24.272Z,0.43
2022-12-04T06:44:52.268Z,0.75
2022-12-04T06:47:21.602Z,0.88
2022-12-04T06:49:51.472Z,0.55
2022-12-04T06:52:19.755Z,0.98
2022-12-04T06:54:47.928Z,0.90
2022-12-04T06:57:16.032Z,0.80
2022-12-04T06:59:44.032Z,0.90
2022-12-04T07:02:12.399Z,1.10
2022-12-04T07:04:41.843Z,1.17
2022-12-04T07:07:10.803Z,0.85
2022-12-04T07:09:39.025Z,0.70
2022-12-04T07:12:07.614Z,0.65
2022-12-04T07:14:35.654Z,0.90
2022-12-04T07:17:03.966Z,0.50
2022-12-04T07:19:32.073Z,0.90
2022-12-04T07:22:01.476Z,0.80
2022-12-04T07:24:29.491Z,0.65
2022-12-04T07:26:57.507Z,0.80
2022-12-04T07:29:25.491Z,1.35
2022-12-04T07:31:53.602Z,0.77
2022-12-04T07:34:21.621Z,1.00
2022-12-04T07:36:49.637Z,0.63
2022-12-04T07:39:19.048Z,1.25
2022-12-04T07:41:47.087Z,0.93
2022-12-04T07:44:15.099Z,1.13
2022-12-04T07:46:43.071Z,0.90
2022-12-04T07:49:13.446Z,1.05
2022-12-04T07:51:41.507Z,1.48
2022-12-04T07:54:10.112Z,0.68
2022-12-04T07:56:39.508Z,0.65
2022-12-04T07:59:10.530Z,0.63
2022-12-04T08:01:38.664Z,0.57
2022-12-04T08:04:06.994Z,0.77
2022-12-04T08:06:36.350Z,0.45
2022-12-04T08:09:09.741Z,1.10
2022-12-04T08:11:40.061Z,0.90
2022-12-04T08:14:09.841Z,0.98
2022-12-04T08:16:38.407Z,1.15
2022-12-04T08:19:06.798Z,1.40
2022-12-04T08:21:35.237Z,1.27
2022-12-04T08:24:04.066Z,1.58
2022-12-04T08:26:33.850Z,2.40
2022-12-04T08:29:04.331Z,0.85
2022-12-04T08:31:35.645Z,1.90
2022-12-04T08:34:05.963Z,2.17
2022-12-04T08:39:03.281Z,0.77
2022-12-04T08:41:31.409Z,1.40
2022-12-04T08:43:59.687Z,0.93
2022-12-04T08:46:29.765Z,1.17
2022-12-04T08:51:28.512Z,0.93
2022-12-04T08:53:57.865Z,1.25
2022-12-04T08:56:26.821Z,1.05
2022-12-04T08:58:56.342Z,0.75
2022-12-04T09:01:25.648Z,0.95
2022-12-04T09:03:55.888Z,1.17
2022-12-04T09:08:54.859Z,1.38
2022-12-04T09:11:24.558Z,0.95
2022-12-04T09:13:53.492Z,1.38
2022-12-04T09:16:23.559Z,0.75
2022-12-04T09:21:22.753Z,1.48
2022-12-04T09:23:50.860Z,1.20
2022-12-04T09:26:23.240Z,1.13
2022-12-04T09:28:52.145Z,1.35
2022-12-04T09:31:21.255Z,1.15
2022-12-04T09:33:49.823Z,1.48
2022-12-04T09:36:18.333Z,1.20
2022-12-04T09:38:49.829Z,1.85
2022-12-04T09:41:45.945Z,0.77
2022-12-04T09:44:20.781Z,1.30
2022-12-04T09:46:54.228Z,1.00
2022-12-04T09:49:26.636Z,1.17
2022-12-04T09:51:59.479Z,1.17
2022-12-04T09:54:35.216Z,1.08
2022-12-04T09:57:11.823Z,1.13
2022-12-04T09:59:40.028Z,1.15
2022-12-04T10:02:25.662Z,0.70
2022-12-04T10:04:53.941Z,0.77
2022-12-04T10:07:29.098Z,1.13
2022-12-04T10:10:06.885Z,1.10
2022-12-04T10:12:47.717Z,1.33
2022-12-04T10:15:28.618Z,1.10
2022-12-04T10:18:12.053Z,0.98
2022-12-04T10:20:52.461Z,2.10
2022-12-04T10:23:32.941Z,1.08
2022-12-04T10:26:05.346Z,1.52
2022-12-04T10:28:39.283Z,1.02
2022-12-04T10:31:14.721Z,1.30
2022-12-04T10:33:47.469Z,1.23
2022-12-04T10:36:18.534Z,1.40
2022-12-04T10:38:51.247Z,1.50
2022-12-04T10:41:27.479Z,1.15
2022-12-04T10:43:55.599Z,1.10
2022-12-04T10:46:25.848Z,0.88
2022-12-04T10:51:24.529Z,1.30
2022-12-04T10:53:53.256Z,1.45
2022-12-04T10:56:25.128Z,1.15
2022-12-04T10:58:58.218Z,0.85
2022-12-04T11:01:28.111Z,0.85
2022-12-04T11:04:01.357Z,1.35
2022-12-04T11:06:30.034Z,1.65
2022-12-04T11:08:59.632Z,1.20
2022-12-04T11:11:32.415Z,1.48
2022-12-04T11:14:05.227Z,1.05
2022-12-04T11:16:40.309Z,1.25
2022-12-04T11:19:23.515Z,1.00
2022-12-04T11:21:52.597Z,1.50
2022-12-04T11:24:27.762Z,1.42
2022-12-04T11:26:58.345Z,1.52
2022-12-04T11:29:32.493Z,0.82
2022-12-04T11:32:07.188Z,0.70
2022-12-04T11:34:39.533Z,0.90
2022-12-04T11:37:16.679Z,0.98
2022-12-04T11:39:46.304Z,0.70
2022-12-04T11:42:20.727Z,0.90
2022-12-04T11:44:53.813Z,0.82
2022-12-04T11:47:23.592Z,1.00
2022-12-04T11:50:13.167Z,0.60
2022-12-04T11:52:56.299Z,1.15
2022-12-04T11:55:29.697Z,0.60
2022-12-04T11:58:16.723Z,0.90
2022-12-04T12:00:53.713Z,1.00
2022-12-04T12:03:27.734Z,1.02
2022-12-04T12:06:31.246Z,1.95
2022-12-04T12:09:09.873Z,1.42
2022-12-04T12:11:43.826Z,1.38
2022-12-04T12:14:24.423Z,1.10
2022-12-04T12:17:00.374Z,1.30
2022-12-04T12:19:42.518Z,1.23
2022-12-04T12:22:21.845Z,0.93
2022-12-04T12:24:59.862Z,1.27
2022-12-04T12:27:47.542Z,0.43
2022-12-04T12:30:20.979Z,0.88
2022-12-04T12:33:03.635Z,0.85
2022-12-04T12:35:36.257Z,0.75
2022-12-04T12:38:10.784Z,0.60
2022-12-04T12:40:43.030Z,0.68
2022-12-04T12:43:17.407Z,0.63
2022-12-04T12:45:55.210Z,1.00
2022-12-04T12:48:30.796Z,0.85
2022-12-04T12:51:29.247Z,7.53
2022-12-04T12:53:58.062Z,4.07
2022-12-04T12:56:33.831Z,2.35
2022-12-04T12:59:05.836Z,1.20
2022-12-04T13:01:46.411Z,0.73
2022-12-04T13:04:21.728Z,0.98
2022-12-04T13:06:55.456Z,0.88
2022-12-04T13:09:27.141Z,0.98
2022-12-04T13:12:00.526Z,0.93
2022-12-04T13:14:28.629Z,0.80
2022-12-04T13:17:04.049Z,1.10
2022-12-04T13:19:41.814Z,1.25
2022-12-04T13:22:17.833Z,1.17
2022-12-04T13:25:08.332Z,1.40
2022-12-04T13:27:47.950Z,1.00
2022-12-04T13:30:20.915Z,0.47
2022-12-04T13:33:20.750Z,1.17
2022-12-04T13:36:12.292Z,0.98
2022-12-04T13:38:57.687Z,1.42
2022-12-04T13:41:29.102Z,1.00
2022-12-04T13:44:00.717Z,1.67
2022-12-04T13:46:35.490Z,1.25
2022-12-04T13:49:26.405Z,1.38
2022-12-04T13:51:55.590Z,1.30
2022-12-04T13:54:27.096Z,0.95
2022-12-04T13:56:56.987Z,1.17
2022-12-04T13:59:40.599Z,0.65
2022-12-04T14:02:26.640Z,0.88
2022-12-04T14:04:59.022Z,1.83
2022-12-04T14:07:31.567Z,2.60
2022-12-04T14:10:04.820Z,1.70
2022-12-04T14:12:37.694Z,2.13
2022-12-04T14:15:09.090Z,2.20
2022-12-04T14:17:39.682Z,4.65
2022-12-04T14:20:25.834Z,2.30
2022-12-04T14:22:54.120Z,2.50
2022-12-04T14:25:33.343Z,4.70
2022-12-04T14:28:01.730Z,2.20
2022-12-04T14:30:37.385Z,1.77
2022-12-04T14:33:11.043Z,1.60
2022-12-04T14:35:49.173Z,1.40
2022-12-04T14:38:21.320Z,1.73
2022-12-04T14:40:51.772Z,1.77
2022-12-04T14:43:22.480Z,2.70
2022-12-04T14:45:57.302Z,2.25
2022-12-04T14:48:36.410Z,2.67
2022-12-04T14:51:16.049Z,1.25
2022-12-04T14:53:50.334Z,1.00
2022-12-04T14:56:45.365Z,1.25
2022-12-04T14:59:20.674Z,1.08
2022-12-04T15:01:50.932Z,1.20
2022-12-04T15:07:00.013Z,1.10
2022-12-04T15:09:46.326Z,2.13
2022-12-04T15:12:39.176Z,1.00
2022-12-04T15:15:16.361Z,1.42
2022-12-04T15:17:44.765Z,1.10
2022-12-04T15:20:17.582Z,1.83
2022-12-04T15:22:48.400Z,2.80
2022-12-04T15:25:20.015Z,2.22
2022-12-04T15:27:49.502Z,4.43
2022-12-04T15:30:20.683Z,10.18
2022-12-04T15:32:53.198Z,2.75
2022-12-04T15:35:25.246Z,1.40
2022-12-04T15:37:54.928Z,1.20
2022-12-04T15:40:25.162Z,2.65
2022-12-04T15:42:56.113Z,4.40
2022-12-04T15:45:35.186Z,2.92
2022-12-04T15:48:03.303Z,2.17
2022-12-04T15:50:32.073Z,2.80
2022-12-04T15:53:08.313Z,2.10
2022-12-04T15:55:40.744Z,2.42
2022-12-04T15:58:21.353Z,2.55
2022-12-04T16:00:56.190Z,2.40
2022-12-04T16:03:27.929Z,2.10
2022-12-04T16:06:10.476Z,2.30
2022-12-04T16:08:42.573Z,1.77
2022-12-04T16:11:28.871Z,1.35
2022-12-04T16:14:06.307Z,1.55
2022-12-04T16:16:34.284Z,2.53
2022-12-04T16:19:06.892Z,2.78
2022-12-04T16:21:35.528Z,3.67
2022-12-04T16:24:12.268Z,4.15
2022-12-04T16:26:40.666Z,3.13
2022-12-04T16:29:09.067Z,3.22
2022-12-04T16:31:39.169Z,4.03
2022-12-04T16:36:35.556Z,3.08
2022-12-04T16:39:05.266Z,3.75
2022-12-04T16:41:33.657Z,11.70
2022-12-04T16:44:02.521Z,8.35
2022-12-04T16:46:31.279Z,7.45
2022-12-04T16:49:04.193Z,5.80
2022-12-04T16:51:37.445Z,8.98
2022-12-04T16:56:35.572Z,4.65
2022-12-04T16:59:07.690Z,5.10
2022-12-04T17:01:41.377Z,5.60
2022-12-04T17:04:10.352Z,4.10
2022-12-04T17:06:38.729Z,4.03
2022-12-04T17:09:08.694Z,3.50
2022-12-04T17:11:37.262Z,3.47
2022-12-04T17:14:07.351Z,2.92
2022-12-04T17:16:36.416Z,2.50
2022-12-04T17:19:06.380Z,4.55
2022-12-04T17:21:35.920Z,6.82
2022-12-04T17:24:04.338Z,7.07
2022-12-04T17:26:33.922Z,6.90
2022-12-04T17:29:02.000Z,3.70
2022-12-04T17:31:31.152Z,2.92
2022-12-04T17:33:59.349Z,2.55
2022-12-04T17:36:28.577Z,4.50
2022-12-04T17:38:58.323Z,2.03
2022-12-04T17:41:26.557Z,1.60
2022-12-04T17:43:55.965Z,2.10
2022-12-04T17:46:24.777Z,3.00
2022-12-04T17:48:53.035Z,2.78
2022-12-04T17:51:23.745Z,3.38
2022-12-04T17:53:52.927Z,2.97
2022-12-04T17:56:23.154Z,3.30
2022-12-04T18:01:23.023Z,3.60
2022-12-04T18:03:52.223Z,3.10
2022-12-04T18:06:23.234Z,2.92
2022-12-04T18:08:52.271Z,2.78
2022-12-04T18:11:21.583Z,4.65
2022-12-04T18:13:49.801Z,2.40
2022-12-04T18:16:21.171Z,2.08
2022-12-04T18:18:50.890Z,1.98
2022-12-04T18:21:19.208Z,1.92
2022-12-04T18:23:47.457Z,1.48
2022-12-04T18:26:17.354Z,1.50
2022-12-04T18:28:45.889Z,2.15
2022-12-04T18:31:15.387Z,3.20
2022-12-04T18:33:46.226Z,3.83
2022-12-04T18:36:19.965Z,5.32
2022-12-04T18:38:48.843Z,3.55
2022-12-04T18:41:17.072Z,3.25
2022-12-04T18:43:46.765Z,4.38
2022-12-04T18:46:17.395Z,3.65
2022-12-04T18:48:48.428Z,4.57
2022-12-04T18:51:24.804Z,3.78
2022-12-04T18:53:57.679Z,3.72
2022-12-04T18:56:26.448Z,3.75
2022-12-04T18:59:00.732Z,5.18
2022-12-04T19:01:31.387Z,2.63
2022-12-04T19:04:04.623Z,2.60
2022-12-04T19:06:34.367Z,2.97
2022-12-04T19:09:05.545Z,2.15
2022-12-04T19:11:34.951Z,3.05
2022-12-04T19:14:12.530Z,4.97
2022-12-04T19:16:44.993Z,2.50
2022-12-04T19:19:15.947Z,2.42
2022-12-04T19:21:44.829Z,2.13
2022-12-04T19:24:13.854Z,2.08
2022-12-04T19:26:42.947Z,2.75
2022-12-04T19:29:13.874Z,2.83
2022-12-04T19:31:42.431Z,2.40
2022-12-04T19:34:10.617Z,3.15
2022-12-04T19:36:41.243Z,3.92
2022-12-04T19:39:09.400Z,4.82
2022-12-04T19:41:40.853Z,2.42
2022-12-04T19:44:46.249Z,2.90
2022-12-04T19:46:58.794Z,2.43
2022-12-04T19:49:32.693Z,2.67
2022-12-04T19:52:02.769Z,2.92
2022-12-04T19:54:31.195Z,3.72
2022-12-04T19:57:04.509Z,3.13
2022-12-04T19:59:36.957Z,2.60
2022-12-04T20:02:08.171Z,3.40
2022-12-04T20:04:36.224Z,2.90
2022-12-04T20:07:05.923Z,3.00
2022-12-04T20:09:34.505Z,2.92
2022-12-04T20:12:03.188Z,3.20
2022-12-04T20:14:32.863Z,3.25
2022-12-04T20:17:04.123Z,2.10
2022-12-04T20:19:32.318Z,2.00
2022-12-04T20:22:00.626Z,2.75
2022-12-04T20:24:30.050Z,2.85
2022-12-04T20:26:58.256Z,2.38
2022-12-04T20:29:26.372Z,2.22
2022-12-04T20:31:54.758Z,1.45
2022-12-04T20:34:22.829Z,1.38
2022-12-04T20:36:51.075Z,1.70
2022-12-04T20:39:20.745Z,1.40
2022-12-04T20:41:50.252Z,1.70
2022-12-04T20:44:22.930Z,5.28
2022-12-04T20:46:53.981Z,4.82
2022-12-04T20:49:22.738Z,3.58
2022-12-04T20:51:52.375Z,3.22
2022-12-04T20:54:23.287Z,2.88
2022-12-04T20:56:54.544Z,3.03
2022-12-04T20:59:24.141Z,3.22
2022-12-04T21:01:52.966Z,2.28
2022-12-04T21:04:22.205Z,4.38
2022-12-04T21:06:50.545Z,6.45
2022-12-04T21:09:21.123Z,4.78
2022-12-04T21:12:00.409Z,3.17
2022-12-04T21:14:47.385Z,3.33
2022-12-04T21:17:18.978Z,3.67
2022-12-04T21:19:48.861Z,2.83
2022-12-04T21:22:18.821Z,4.35
2022-12-04T21:24:46.950Z,4.78
2022-12-04T21:27:20.919Z,3.40
2022-12-04T21:29:50.304Z,3.90
2022-12-04T21:32:19.468Z,3.35
2022-12-04T21:34:47.555Z,2.83
2022-12-04T21:37:15.986Z,4.00
2022-12-04T21:39:44.437Z,4.10
2022-12-04T21:42:30.155Z,3.25
2022-12-04T21:45:00.122Z,3.45
2022-12-04T21:47:28.557Z,3.78
2022-12-04T21:49:56.856Z,4.25
2022-12-04T21:52:25.360Z,4.90
2022-12-04T21:54:55.113Z,3.47
2022-12-04T21:57:24.176Z,4.28
2022-12-04T21:59:53.399Z,3.90
2022-12-04T22:02:23.129Z,4.55
2022-12-04T22:04:51.264Z,4.18
2022-12-04T22:07:19.538Z,3.65
2022-12-04T22:09:47.678Z,4.10
2022-12-04T22:15:03.943Z,4.20
2022-12-04T22:17:33.416Z,3.95
2022-12-04T22:20:01.677Z,3.13
2022-12-04T22:22:29.744Z,4.05
2022-12-04T22:25:01.196Z,5.78
2022-12-04T22:27:29.671Z,4.25
2022-12-04T22:29:57.969Z,3.17
2022-12-04T22:32:25.990Z,4.07
2022-12-04T22:34:55.395Z,3.63
2022-12-04T22:37:24.373Z,4.15
2022-12-04T22:39:52.459Z,3.28
2022-12-04T22:42:20.548Z,3.15
2022-12-04T22:44:48.764Z,2.85
2022-12-04T22:47:16.777Z,3.08
2022-12-04T22:49:45.191Z,3.42
2022-12-04T22:52:15.636Z,3.75
2022-12-04T22:54:43.769Z,3.58
2022-12-04T22:57:11.926Z,5.55
2022-12-04T22:59:40.000Z,3.67
2022-12-04T23:02:08.152Z,4.45
2022-12-04T23:04:36.384Z,3.72
2022-12-04T23:07:05.501Z,3.67
2022-12-04T23:09:35.052Z,4.38
2022-12-04T23:12:03.602Z,5.15
2022-12-04T23:14:33.689Z,4.50
2022-12-04T23:17:02.054Z,5.00
2022-12-04T23:19:31.417Z,4.78
2022-12-04T23:21:59.623Z,6.73
2022-12-04T23:24:27.882Z,5.15
2022-12-04T23:26:57.500Z,5.38
2022-12-04T23:32:15.298Z,4.68
2022-12-04T23:34:43.419Z,5.75
2022-12-04T23:37:11.773Z,3.75
2022-12-04T23:39:39.930Z,4.03
2022-12-04T23:42:09.356Z,4.05
2022-12-04T23:44:37.474Z,3.97
2022-12-04T23:47:08.319Z,4.03
2022-12-04T23:49:36.609Z,3.90
2022-12-04T23:52:04.783Z,4.00
2022-12-04T23:54:35.100Z,4.20
2022-12-04T23:57:03.522Z,3.60
2022-12-04T23:59:33.044Z,3.53
